createdAt,value
2019-03-12T17:14:08.034Z,3.90
2019-03-12T17:16:37.769Z,2.97
2019-03-12T17:19:07.770Z,3.70
2019-03-12T17:21:37.750Z,3.80
2019-03-12T17:27:31.001Z,5.10
2019-03-12T17:30:00.558Z,3.10
2019-03-12T17:32:30.068Z,3.53
2019-03-12T17:34:59.441Z,5.03
2019-03-12T17:40:52.805Z,1.97
2019-03-12T17:43:22.128Z,3.50
2019-03-12T17:45:51.519Z,5.37
2019-03-12T17:48:20.890Z,4.00
2019-03-12T17:50:55.149Z,5.00
2019-03-12T17:53:27.834Z,3.33
2019-03-12T17:56:00.215Z,2.40
2019-03-12T17:58:29.653Z,2.50
2019-03-12T18:00:59.080Z,4.93
2019-03-12T18:03:28.495Z,2.83
2019-03-12T18:05:57.941Z,2.80
2019-03-12T18:08:27.446Z,2.80
2019-03-12T18:10:57.142Z,2.63
2019-03-12T18:13:28.023Z,2.90
2019-03-12T18:15:57.389Z,2.47
2019-03-12T18:18:26.890Z,2.40
2019-03-12T18:20:56.480Z,2.50
2019-03-12T18:23:26.004Z,3.80
2019-03-12T18:25:55.726Z,3.73
2019-03-12T18:28:25.118Z,3.20
2019-03-12T18:30:54.572Z,2.67
2019-03-12T18:33:24.156Z,2.03
2019-03-12T18:35:53.582Z,2.43
2019-03-12T18:38:23.009Z,1.73
2019-03-12T18:40:52.418Z,1.60
2019-03-12T18:43:21.800Z,1.67
2019-03-12T18:45:51.282Z,1.40
2019-03-12T18:48:20.662Z,1.43
2019-03-12T18:50:50.159Z,1.60
2019-03-12T18:53:19.766Z,2.93
2019-03-12T18:55:59.712Z,1.73
2019-03-12T18:58:29.096Z,1.53
2019-03-12T19:01:00.715Z,1.10
2019-03-12T19:03:30.161Z,1.47
2019-03-12T19:05:59.772Z,1.17
2019-03-12T19:08:29.381Z,1.20
2019-03-12T19:10:58.805Z,1.47
2019-03-12T19:13:28.379Z,1.47
2019-03-12T19:15:57.768Z,1.00
2019-03-12T19:18:27.302Z,1.00
2019-03-12T19:20:56.698Z,0.90
2019-03-12T19:23:26.113Z,1.63
2019-03-12T19:25:56.205Z,1.10
2019-03-12T19:28:25.619Z,1.00
2019-03-12T19:31:05.307Z,1.07
2019-03-12T19:33:34.692Z,1.17
2019-03-12T19:36:04.297Z,1.20
2019-03-12T19:38:33.735Z,1.67
2019-03-12T19:41:03.862Z,1.20
2019-03-12T19:43:33.332Z,1.10
2019-03-12T19:46:02.704Z,1.60
2019-03-12T19:48:32.134Z,1.30
2019-03-12T19:51:01.516Z,1.20
2019-03-12T19:53:30.909Z,1.20
2019-03-12T19:56:00.620Z,1.37
2019-03-12T19:58:30.045Z,1.70
2019-03-12T20:01:00.892Z,1.47
2019-03-12T20:03:30.417Z,1.20
2019-03-12T20:05:59.809Z,0.90
2019-03-12T20:08:29.298Z,1.93
2019-03-12T20:12:00.885Z,1.30
2019-03-12T20:15:29.430Z,1.20
2019-03-12T20:18:47.885Z,1.03
2019-03-12T20:21:48.242Z,0.97
2019-03-12T20:25:16.015Z,1.10
2019-03-12T20:28:28.477Z,0.90
2019-03-12T20:31:34.203Z,1.40
2019-03-12T20:34:53.687Z,0.80
2019-03-12T20:37:59.833Z,1.00
2019-03-12T20:41:09.233Z,0.83
2019-03-12T20:44:18.748Z,1.23
2019-03-12T20:47:43.212Z,0.90
2019-03-12T20:50:48.689Z,1.00
2019-03-12T20:54:16.913Z,1.40
2019-03-12T20:57:38.429Z,1.40
2019-03-12T21:00:44.855Z,1.20
2019-03-12T21:03:53.825Z,1.40
2019-03-12T21:06:50.830Z,1.00
2019-03-12T21:10:22.586Z,1.20
2019-03-12T21:13:31.980Z,1.20
2019-03-12T21:16:51.189Z,0.80
2019-03-12T21:20:21.154Z,1.10
2019-03-12T21:23:42.229Z,2.70
2019-03-12T21:26:52.734Z,1.10
2019-03-12T21:29:45.675Z,1.00
2019-03-12T21:32:16.591Z,1.10
2019-03-12T21:34:46.406Z,1.00
2019-03-12T21:37:16.218Z,1.30
2019-03-12T21:39:55.288Z,0.93
2019-03-12T21:42:16.764Z,0.90
2019-03-12T21:44:46.145Z,1.07
2019-03-12T21:47:15.576Z,1.23
2019-03-12T21:49:45.186Z,1.50
2019-03-12T21:52:14.641Z,1.10
2019-03-12T21:54:44.399Z,0.80
2019-03-12T21:57:13.777Z,1.80
2019-03-12T21:59:43.158Z,1.10
2019-03-12T22:02:12.575Z,1.00
2019-03-12T22:04:41.938Z,1.70
2019-03-12T22:07:11.418Z,1.50
2019-03-12T22:09:40.790Z,0.87
2019-03-12T22:12:10.163Z,1.17
2019-03-12T22:14:39.565Z,1.27
2019-03-12T22:17:09.047Z,1.70
2019-03-12T22:19:38.554Z,1.60
2019-03-12T22:22:30.158Z,1.50
2019-03-12T22:24:59.557Z,1.27
2019-03-12T22:27:28.925Z,1.50
2019-03-12T22:29:58.321Z,1.17
2019-03-12T22:32:27.744Z,1.20
2019-03-12T22:34:57.130Z,1.50
2019-03-12T22:37:26.565Z,1.30
2019-03-12T22:39:55.954Z,1.17
2019-03-12T22:42:25.498Z,1.23
2019-03-12T22:44:55.107Z,1.10
2019-03-12T22:47:24.483Z,1.50
2019-03-12T22:49:54.015Z,1.17
2019-03-12T22:52:23.394Z,1.40
2019-03-12T22:54:52.792Z,1.50
2019-03-12T22:57:22.161Z,1.00
2019-03-12T22:59:51.792Z,1.20
2019-03-12T23:02:21.361Z,1.10
2019-03-12T23:04:50.835Z,1.00
2019-03-12T23:07:20.243Z,1.03
2019-03-12T23:09:49.586Z,1.57
2019-03-12T23:12:19.494Z,1.30
2019-03-12T23:14:48.936Z,1.03
2019-03-12T23:17:18.281Z,1.17
2019-03-12T23:19:48.071Z,1.20
2019-03-12T23:22:17.522Z,1.20
2019-03-12T23:24:46.931Z,1.40
2019-03-12T23:27:16.404Z,1.10
2019-03-12T23:29:45.889Z,1.27
2019-03-12T23:32:16.088Z,1.10
2019-03-12T23:34:45.474Z,1.10
2019-03-12T23:37:15.076Z,1.23
2019-03-12T23:39:44.476Z,1.30
2019-03-12T23:42:29.337Z,1.30
2019-03-12T23:44:58.727Z,1.30
2019-03-12T23:47:28.610Z,1.00
2019-03-12T23:49:58.024Z,1.03
2019-03-12T23:52:27.403Z,0.80
2019-03-12T23:54:56.798Z,1.13
2019-03-12T23:57:26.215Z,1.13
2019-03-12T23:59:55.638Z,0.90
